Time;durP1;ratioP1;P1;durP2;ratioP2;P2;SDS_P1;SDS_P2;PMS_P1;PMS_P2;Temp;Humidity;BMP_temperature;BMP_pressure;BME280_temperature;BME280_humidity;BME280_pressure;Samples;Min_cycle;Max_cycle;Signal;HPM_P1;HPM_P2
2021/08/25 00:00:14;;;;;;;;;;;;;;;10.80;96.33;102285.50;5052720;28;20362;-68
2021/08/25 00:02:40;;;;;;;10.85;3.20;;;;;;;10.76;96.22;102282.22;5070058;28;19918;-67
2021/08/25 00:05:07;;;;;;;6.27;2.73;;;;;;;10.76;96.61;102281.38;5069761;28;20093;-67
2021/08/25 00:07:32;;;;;;;5.70;3.30;;;;;;;10.72;96.41;102271.91;5069577;28;20733;-67
2021/08/25 00:09:57;;;;;;;6.60;3.20;;;;;;;10.71;96.58;102272.88;5069842;28;20027;-67
2021/08/25 00:12:23;;;;;;;5.73;3.07;;;;;;;10.70;97.00;102268.50;5069757;28;20083;-67
2021/08/25 00:14:48;;;;;;;10.97;3.90;;;;;;;10.69;96.76;102259.66;5068431;28;20085;-67
2021/08/25 00:17:14;;;;;;;7.80;2.67;;;;;;;10.68;96.52;102263.31;5068659;28;20103;-67
2021/08/25 00:19:41;;;;;;;8.33;3.27;;;;;;;10.67;97.14;102255.41;5069752;28;20036;-67
2021/08/25 00:22:07;;;;;;;5.05;2.60;;;;;;;10.64;96.73;102255.66;5069360;28;20037;-67
2021/08/25 00:24:32;;;;;;;8.47;2.87;;;;;;;10.56;96.58;102249.13;5069547;28;20024;-67
2021/08/25 00:26:57;;;;;;;11.13;3.47;;;;;;;10.55;96.20;102247.44;5069161;28;20161;-67
2021/08/25 00:29:23;;;;;;;10.37;3.27;;;;;;;10.54;96.29;102250.25;5068627;28;20064;-68
2021/08/25 00:31:48;;;;;;;5.17;2.60;;;;;;;10.49;96.11;102237.25;5068135;28;20028;-67
2021/08/25 00:34:14;;;;;;;9.37;3.10;;;;;;;10.48;96.11;102234.72;5068368;28;20044;-67
2021/08/25 00:36:39;;;;;;;5.97;2.93;;;;;;;10.46;96.28;102234.81;5068146;28;20043;-67
2021/08/25 00:39:05;;;;;;;6.90;2.90;;;;;;;10.45;96.31;102226.97;5068599;28;20037;-67
2021/08/25 00:41:30;;;;;;;4.43;2.95;;;;;;;10.43;96.33;102226.22;5069046;28;20035;-67
2021/08/25 00:43:57;;;;;;;10.13;3.40;;;;;;;10.38;96.51;102226.59;5068238;28;20051;-67
2021/08/25 00:46:22;;;;;;;5.28;2.88;;;;;;;10.36;96.38;102217.88;5067536;28;20040;-67
2021/08/25 00:48:49;;;;;;;5.73;3.30;;;;;;;10.31;96.05;102220.06;5051678;28;20347;-67
2021/08/25 00:51:15;;;;;;;;;;;;;;;10.30;96.40;102218.34;5069088;28;20127;-67
2021/08/25 00:53:41;;;;;;;;;;;;;;;10.30;96.57;102218.34;5069510;28;19995;-67
2021/08/25 00:56:07;;;;;;;5.70;3.05;;;;;;;10.27;96.73;102211.41;5068706;28;19912;-67
2021/08/25 00:58:35;;;;;;;9.10;3.20;;;;;;;10.27;97.21;102206.06;5068776;28;20119;-67
2021/08/25 01:01:08;;;;;;;13.90;3.33;;;;;;;10.28;97.50;102204.28;5069009;28;20086;-67
2021/08/25 01:03:44;;;;;;;7.65;3.08;;;;;;;10.23;97.22;102198.44;5067994;28;20082;-67
2021/08/25 01:06:11;;;;;;;;;;;;;;;10.24;97.30;102189.47;5067967;28;20064;-67
2021/08/25 01:08:37;;;;;;;5.00;2.70;;;;;;;10.23;96.94;102183.31;5067879;28;19920;-67
2021/08/25 01:11:09;;;;;;;5.68;2.97;;;;;;;10.20;96.77;102182.69;5068909;28;20082;-67
2021/08/25 01:13:35;;;;;;;6.78;3.00;;;;;;;10.19;96.70;102181.84;5068431;28;20032;-67
2021/08/25 01:16:00;;;;;;;7.43;2.85;;;;;;;10.16;96.92;102179.44;5068333;28;20070;-68
2021/08/25 01:18:26;;;;;;;7.80;3.60;;;;;;;10.18;97.09;102180.13;5068500;28;20108;-67
2021/08/25 01:20:53;;;;;;;7.07;3.53;;;;;;;10.21;97.52;102173.69;5067790;28;20040;-67
2021/08/25 01:23:23;;;;;;;7.03;3.33;;;;;;;10.28;97.79;102169.59;5067089;28;20039;-67
2021/08/25 01:25:53;;;;;;;8.50;3.08;;;;;;;10.32;98.02;102165.69;5068257;28;20040;-67
2021/08/25 01:28:22;;;;;;;6.32;3.70;;;;;;;10.42;99.04;102171.13;5068379;28;20529;-67
2021/08/25 01:30:49;;;;;;;6.55;3.55;;;;;;;10.43;99.39;102157.66;5068556;28;20039;-67
2021/08/25 01:33:22;;;;;;;5.05;2.97;;;;;;;10.41;99.33;102146.25;5067308;28;20048;-67
2021/08/25 01:35:48;;;;;;;8.27;4.03;;;;;;;10.46;99.31;102154.72;5068173;28;20458;-67
2021/08/25 01:38:41;;;;;;;8.35;4.22;;;;;;;10.54;99.55;102138.09;5067345;28;20043;-67
2021/08/25 01:41:07;;;;;;;8.35;4.38;;;;;;;10.48;99.25;102139.41;5068622;28;20119;-67
2021/08/25 01:43:34;;;;;;;5.70;3.15;;;;;;;10.53;99.49;102145.22;5067260;28;20063;-67
2021/08/25 01:45:59;;;;;;;7.30;3.75;;;;;;;10.50;99.56;102137.47;5067021;28;20056;-67
2021/08/25 01:48:24;;;;;;;7.20;3.77;;;;;;;10.54;99.67;102136.25;5068272;28;20083;-67
2021/08/25 01:50:50;;;;;;;7.77;3.13;;;;;;;10.61;99.76;102139.25;5068261;28;20051;-67
2021/08/25 01:53:15;;;;;;;6.00;3.33;;;;;;;10.63;99.92;102126.63;5068408;28;20024;-67
2021/08/25 01:55:41;;;;;;;6.70;3.97;;;;;;;10.72;100.00;102120.50;5067997;28;20361;-67
2021/08/25 01:58:07;;;;;;;11.25;6.63;;;;;;;11.02;100.00;102123.34;5067290;28;20044;-67
2021/08/25 02:00:32;;;;;;;8.47;4.20;;;;;;;11.11;100.00;102117.22;5068240;28;20098;-67
2021/08/25 02:02:58;;;;;;;8.32;4.68;;;;;;;11.10;100.00;102120.88;5067177;28;20029;-67
2021/08/25 02:05:23;;;;;;;5.80;3.57;;;;;;;11.05;100.00;102120.41;5067966;28;20036;-67
2021/08/25 02:07:48;;;;;;;6.53;4.03;;;;;;;11.14;99.99;102114.28;5068116;28;20078;-67
2021/08/25 02:10:14;;;;;;;9.10;3.93;;;;;;;11.16;100.00;102117.66;5067260;28;20035;-67
2021/08/25 02:12:39;;;;;;;7.47;4.10;;;;;;;11.17;100.00;102117.53;5067126;28;20353;-67
2021/08/25 02:15:05;;;;;;;5.60;3.30;;;;;;;11.18;100.00;102115.72;5071310;28;20085;-67
2021/08/25 02:17:30;;;;;;;10.27;4.40;;;;;;;11.29;100.00;102118.31;5071862;28;20090;-67
2021/08/25 02:19:56;;;;;;;11.45;4.75;;;;;;;11.32;100.00;102123.38;5072036;28;20064;-67
2021/08/25 02:22:22;;;;;;;6.70;4.27;;;;;;;11.37;100.00;102115.78;5072091;28;20029;-67
2021/08/25 02:24:47;;;;;;;10.13;4.70;;;;;;;11.43;100.00;102110.91;5071987;28;20036;-67
2021/08/25 02:27:13;;;;;;;7.47;3.75;;;;;;;11.45;100.00;102104.44;5071607;28;20446;-67
2021/08/25 02:29:38;;;;;;;6.77;4.03;;;;;;;11.53;100.00;102103.75;5072164;28;20458;-67
2021/08/25 02:32:04;;;;;;;6.67;2.40;;;;;;;11.56;100.00;102092.78;5071621;28;20169;-67
2021/08/25 02:34:29;;;;;;;9.18;4.00;;;;;;;11.60;100.00;102094.19;5070800;28;20366;-67
2021/08/25 02:36:54;;;;;;;7.03;3.53;;;;;;;11.63;100.00;102088.56;5071455;28;20055;-67
2021/08/25 02:39:20;;;;;;;9.37;3.70;;;;;;;11.70;100.00;102089.72;5071879;28;20089;-67
2021/08/25 02:41:45;;;;;;;8.47;3.90;;;;;;;11.75;100.00;102083.94;5071440;28;20127;-67
2021/08/25 02:44:11;;;;;;;5.50;3.37;;;;;;;11.76;100.00;102083.81;5070700;28;20036;-67
2021/08/25 02:46:36;;;;;;;6.23;4.00;;;;;;;11.77;100.00;102077.47;5071088;28;20442;-67
2021/08/25 02:49:03;;;;;;;10.83;4.23;;;;;;;11.84;100.00;102080.44;5071475;28;20381;-67
2021/08/25 02:51:28;;;;;;;9.80;5.90;;;;;;;11.86;100.00;102072.28;5070801;28;20020;-68
2021/08/25 02:53:53;;;;;;;13.13;5.70;;;;;;;11.93;100.00;102066.28;5071408;28;20343;-68
2021/08/25 02:56:19;;;;;;;8.73;4.10;;;;;;;12.00;100.00;102055.84;5069918;28;20641;-67
2021/08/25 02:58:45;;;;;;;9.40;5.00;;;;;;;12.14;100.00;102043.88;5070447;28;20457;-68
2021/08/25 03:01:10;;;;;;;12.00;7.18;;;;;;;12.18;100.00;102048.81;5071176;28;20461;-67
2021/08/25 03:03:35;;;;;;;13.23;7.33;;;;;;;12.28;100.00;102040.78;5069973;28;20040;-68
2021/08/25 03:06:01;;;;;;;10.90;6.80;;;;;;;12.29;100.00;102045.16;5069906;28;20028;-68
2021/08/25 03:08:26;;;;;;;16.37;6.97;;;;;;;12.31;100.00;102039.66;5070986;28;20055;-68
2021/08/25 03:10:51;;;;;;;14.10;7.13;;;;;;;12.34;100.00;102042.91;5070110;28;20047;-68
2021/08/25 03:13:16;;;;;;;14.47;6.20;;;;;;;12.36;100.00;102032.03;5070752;28;20032;-68
2021/08/25 03:15:42;;;;;;;12.90;7.23;;;;;;;12.41;100.00;102035.16;5070456;28;20119;-68
2021/08/25 03:18:08;;;;;;;16.10;7.43;;;;;;;12.48;100.00;102036.25;5069704;28;20182;-67
2021/08/25 03:20:33;;;;;;;14.10;7.32;;;;;;;12.49;100.00;102032.59;5070046;28;20064;-68
2021/08/25 03:22:58;;;;;;;12.50;7.43;;;;;;;12.48;100.00;102024.69;5070561;28;20033;-68
2021/08/25 03:25:24;;;;;;;9.50;6.97;;;;;;;12.49;100.00;102021.03;5052238;28;20088;-68
2021/08/25 03:27:49;;;;;;;9.53;6.00;;;;;;;12.50;100.00;102023.53;5069373;28;20120;-68
2021/08/25 03:30:14;;;;;;;12.57;6.00;;;;;;;12.44;100.00;102024.97;5052992;28;20091;-68
2021/08/25 03:32:40;;;;;;;11.50;6.17;;;;;;;12.46;100.00;102022.16;5070407;28;20036;-68
2021/08/25 03:35:06;;;;;;;11.80;7.80;;;;;;;12.46;100.00;102019.47;5070343;28;20040;-67
2021/08/25 03:37:31;;;;;;;12.45;7.10;;;;;;;12.46;100.00;102016.81;5070321;28;20954;-68
2021/08/25 03:39:57;;;;;;;12.87;6.37;;;;;;;12.48;100.00;102009.47;5070316;28;20123;-68
2021/08/25 03:42:22;;;;;;;13.20;6.77;;;;;;;12.50;100.00;102009.31;5070520;28;20358;-68
2021/08/25 03:44:47;;;;;;;13.40;8.03;;;;;;;12.57;100.00;102000.56;5069851;28;20373;-68
2021/08/25 03:47:13;;;;;;;18.03;9.63;;;;;;;12.60;100.00;101997.59;5070147;28;20036;-68
2021/08/25 03:49:38;;;;;;;19.53;8.73;;;;;;;12.57;100.00;101997.91;5070211;28;20484;-68
2021/08/25 03:52:04;;;;;;;17.07;8.73;;;;;;;12.62;100.00;102000.97;5068687;28;20401;-68
2021/08/25 03:54:30;;;;;;;16.75;8.43;;;;;;;12.60;100.00;101997.59;5068887;28;20421;-68
2021/08/25 03:56:56;;;;;;;21.73;8.53;;;;;;;12.57;100.00;101991.66;5068916;28;20480;-68
2021/08/25 03:59:22;;;;;;;18.45;9.80;;;;;;;12.60;100.00;101975.31;5069956;28;20305;-67
2021/08/25 04:01:48;;;;;;;17.10;10.07;;;;;;;12.64;100.00;101966.84;5069960;28;20033;-68
2021/08/25 04:04:13;;;;;;;24.88;10.43;;;;;;;12.62;100.00;101968.00;5069785;28;20059;-68
2021/08/25 04:06:38;;;;;;;17.47;9.33;;;;;;;12.67;100.00;101949.63;5069653;28;20028;-68
2021/08/25 04:09:05;;;;;;;15.27;9.10;;;;;;;12.66;100.00;101943.41;5069963;28;20040;-68
2021/08/25 04:11:31;;;;;;;13.73;8.10;;;;;;;12.66;100.00;101946.09;5069496;28;20020;-68
2021/08/25 04:13:57;;;;;;;;;;;;;;;12.64;100.00;101944.53;5069376;28;20047;-68
2021/08/25 04:16:22;;;;;;;18.23;8.63;;;;;;;12.63;100.00;101943.72;5068183;28;19916;-68
2021/08/25 04:18:47;;;;;;;17.00;8.67;;;;;;;12.61;100.00;101934.13;5069815;28;20032;-68
2021/08/25 04:21:13;;;;;;;14.77;8.70;;;;;;;12.62;100.00;101941.19;5069491;28;20111;-68
2021/08/25 04:23:38;;;;;;;16.30;9.47;;;;;;;12.64;100.00;101923.97;5051865;28;20074;-68
2021/08/25 04:26:03;;;;;;;18.33;8.00;;;;;;;12.62;100.00;101925.97;5068897;28;20482;-68
2021/08/25 04:28:29;;;;;;;17.67;9.47;;;;;;;12.59;100.00;101931.59;5068475;28;20686;-68
2021/08/25 04:30:54;;;;;;;15.93;9.33;;;;;;;12.67;100.00;101928.19;5069324;28;20170;-68
2021/08/25 04:33:20;;;;;;;18.13;9.37;;;;;;;12.70;100.00;101924.38;5069410;28;20020;-68
2021/08/25 04:35:45;;;;;;;21.90;10.53;;;;;;;12.71;100.00;101929.56;5069016;28;20032;-68
2021/08/25 04:38:10;;;;;;;22.57;9.47;;;;;;;12.74;100.00;101928.47;5068297;28;20660;-68
2021/08/25 04:40:36;;;;;;;18.73;9.10;;;;;;;12.72;100.00;101919.72;5068031;28;20040;-67
2021/08/25 04:43:01;;;;;;;13.83;9.07;;;;;;;12.70;100.00;101906.47;5069032;28;20043;-68
2021/08/25 04:45:27;;;;;;;22.13;9.93;;;;;;;12.74;100.00;101913.22;5051366;28;20496;-68
2021/08/25 04:47:53;;;;;;;17.63;9.73;;;;;;;12.75;100.00;101906.03;5068637;28;20031;-68
2021/08/25 04:50:18;;;;;;;18.17;9.33;;;;;;;12.80;100.00;101901.06;5069210;28;20044;-68
2021/08/25 04:52:43;;;;;;;18.33;10.43;;;;;;;12.75;100.00;101898.81;5068612;28;20040;-68
2021/08/25 04:55:09;;;;;;;19.83;10.33;;;;;;;12.74;100.00;101888.28;5068997;28;20029;-68
2021/08/25 04:57:34;;;;;;;22.52;9.95;;;;;;;12.76;100.00;101892.47;5067419;28;20032;-68
2021/08/25 05:00:00;;;;;;;15.90;9.07;;;;;;;12.76;100.00;101887.13;5068090;28;20481;-68
2021/08/25 05:02:25;;;;;;;19.43;10.40;;;;;;;12.80;100.00;101885.81;5051046;28;20362;-67
2021/08/25 05:04:51;;;;;;;20.27;10.17;;;;;;;12.85;100.00;101883.53;5068807;28;20544;-68
2021/08/25 05:07:16;;;;;;;18.83;10.87;;;;;;;12.91;100.00;101882.09;5067332;28;20048;-68
2021/08/25 05:09:41;;;;;;;19.90;9.33;;;;;;;12.92;100.00;101886.44;5068898;28;20036;-67
2021/08/25 05:12:07;;;;;;;21.60;9.37;;;;;;;12.93;100.00;101864.03;5068233;28;20040;-67
2021/08/25 05:14:34;;;;;;;19.13;9.73;;;;;;;13.04;100.00;101879.91;5068451;28;20040;-67
2021/08/25 05:17:01;;;;;;;17.85;10.80;;;;;;;13.08;100.00;101872.38;5068512;28;20032;-67
2021/08/25 05:19:26;;;;;;;14.25;9.30;;;;;;;13.05;100.00;101878.06;5067429;28;20381;-68
2021/08/25 05:21:52;;;;;;;20.63;9.65;;;;;;;13.06;100.00;101875.25;5068361;28;20043;-68
2021/08/25 05:24:17;;;;;;;18.47;10.53;;;;;;;13.09;100.00;101874.09;5068192;28;20144;-68
2021/08/25 05:26:42;;;;;;;19.27;9.97;;;;;;;13.14;100.00;101871.78;5068205;28;20484;-68
2021/08/25 05:29:08;;;;;;;20.10;9.60;;;;;;;13.16;100.00;101871.63;5068341;28;20686;-68
2021/08/25 05:31:33;;;;;;;17.17;9.60;;;;;;;13.10;100.00;101873.91;5068176;28;20500;-67
2021/08/25 05:33:59;;;;;;;16.43;10.10;;;;;;;13.10;100.00;101865.88;5067288;28;20487;-68
2021/08/25 05:36:24;;;;;;;15.30;9.73;;;;;;;13.29;100.00;101861.41;5050347;28;20484;-68
2021/08/25 05:38:50;;;;;;;16.70;9.10;;;;;;;13.28;100.00;101862.41;5050357;28;20025;-68
2021/08/25 05:41:15;;;;;;;17.05;9.32;;;;;;;13.34;100.00;101869.00;5067367;28;20040;-68
2021/08/25 05:43:41;;;;;;;15.90;8.53;;;;;;;13.45;100.00;101868.75;5068045;28;20209;-68
2021/08/25 05:46:06;;;;;;;10.37;7.37;;;;;;;13.68;100.00;101855.72;5067834;28;20040;-68
2021/08/25 05:48:31;;;;;;;16.93;7.47;;;;;;;14.12;99.83;101863.75;5067151;28;20048;-68
2021/08/25 05:50:56;;;;;;;9.57;6.73;;;;;;;15.05;95.53;101857.59;5066861;28;20063;-68
2021/08/25 05:53:22;;;;;;;16.57;7.33;;;;;;;14.66;94.93;101858.16;5067158;28;20036;-68
2021/08/25 05:55:47;;;;;;;10.57;6.60;;;;;;;14.62;95.95;101857.63;5066422;28;20028;-68
2021/08/25 05:58:12;;;;;;;13.30;6.23;;;;;;;15.12;92.29;101851.38;5068051;28;20028;-68
2021/08/25 06:00:38;;;;;;;10.93;6.37;;;;;;;14.92;92.71;101847.31;5066945;28;20029;-68
2021/08/25 06:03:04;;;;;;;13.93;7.27;;;;;;;14.63;94.04;101831.59;5068082;28;20028;-68
2021/08/25 06:05:29;;;;;;;11.17;6.30;;;;;;;14.44;95.16;101832.66;5067591;28;20309;-68
2021/08/25 06:07:55;;;;;;;10.13;6.65;;;;;;;14.23;97.01;101828.53;5067792;28;20028;-68
2021/08/25 06:10:21;;;;;;;7.10;4.95;;;;;;;14.42;97.16;101827.47;5067520;28;20042;-68
2021/08/25 06:12:46;;;;;;;20.27;7.43;;;;;;;14.59;96.30;101814.97;5068061;28;20139;-68
2021/08/25 06:15:11;;;;;;;12.40;6.93;;;;;;;14.48;96.27;101808.00;5067872;28;20063;-68
2021/08/25 06:17:37;;;;;;;10.03;5.83;;;;;;;14.74;96.80;101807.94;5066452;28;20091;-68
2021/08/25 06:20:03;;;;;;;11.60;5.50;;;;;;;15.02;94.09;101802.28;5066917;28;20066;-68
2021/08/25 06:22:29;;;;;;;11.68;6.38;;;;;;;15.15;94.07;101802.66;5067493;28;20020;-68
2021/08/25 06:24:55;;;;;;;9.93;5.10;;;;;;;15.34;92.74;101792.56;5066817;28;20047;-68
2021/08/25 06:27:20;;;;;;;;;;;;;;;15.09;91.79;101789.00;5066582;28;20067;-68
2021/08/25 06:29:46;;;;;;;;;;;;;;;14.93;93.40;101795.22;5067897;28;19967;-68
2021/08/25 06:32:11;;;;;;;9.23;4.50;;;;;;;15.02;93.22;101786.16;5067088;28;19927;-68
2021/08/25 06:34:36;;;;;;;6.13;4.67;;;;;;;14.88;94.72;101793.00;5067525;28;20097;-68
2021/08/25 06:37:02;;;;;;;6.43;4.80;;;;;;;14.74;95.85;101783.75;5067334;28;20036;-68
2021/08/25 06:39:27;;;;;;;7.57;4.37;;;;;;;14.77;94.80;101788.81;5067722;28;20082;-68
2021/08/25 06:41:53;;;;;;;7.67;4.20;;;;;;;14.67;95.07;101780.03;5050013;28;20028;-68
2021/08/25 06:44:18;;;;;;;9.57;4.93;;;;;;;14.62;95.57;101777.00;5067631;28;20033;-68
2021/08/25 06:46:43;;;;;;;11.40;4.83;;;;;;;14.58;95.21;101775.63;5067304;28;20029;-68
2021/08/25 06:49:08;;;;;;;9.27;4.33;;;;;;;14.80;95.03;101776.03;5066456;28;20405;-69
2021/08/25 06:51:34;;;;;;;6.67;3.70;;;;;;;14.89;94.53;101772.34;5066590;28;20465;-68
2021/08/25 06:54:00;;;;;;;8.47;4.30;;;;;;;14.58;93.68;101767.56;5067321;28;20465;-68
2021/08/25 06:56:25;;;;;;;8.65;4.53;;;;;;;14.45;95.01;101772.56;5066104;28;20351;-68
2021/08/25 06:58:51;;;;;;;5.50;3.70;;;;;;;14.74;94.95;101767.63;5067246;28;20039;-68
2021/08/25 07:01:16;;;;;;;5.57;3.90;;;;;;;15.88;89.64;101757.84;5069260;28;20537;-68
2021/08/25 07:03:42;;;;;;;6.67;4.53;;;;;;;15.80;87.98;101749.78;5069909;28;20075;-68
2021/08/25 07:06:07;;;;;;;5.00;3.27;;;;;;;15.70;89.18;101751.81;5070737;28;20039;-68
2021/08/25 07:08:32;;;;;;;4.80;3.43;;;;;;;15.85;88.72;101747.44;5070931;28;20040;-69
2021/08/25 07:10:58;;;;;;;5.70;3.47;;;;;;;16.11;88.68;101749.00;5071057;28;20033;-69
2021/08/25 07:13:23;;;;;;;6.77;3.47;;;;;;;16.63;87.13;101733.06;5069737;28;20039;-68
2021/08/25 07:15:48;;;;;;;5.37;2.93;;;;;;;16.27;85.38;101729.25;5069406;28;20057;-68
2021/08/25 07:18:14;;;;;;;6.83;3.07;;;;;;;16.31;86.06;101734.09;5069922;28;20047;-68
2021/08/25 07:20:39;;;;;;;8.30;3.00;;;;;;;16.33;86.16;101726.69;5070374;28;20354;-69
2021/08/25 07:23:04;;;;;;;4.53;2.80;;;;;;;16.39;86.39;101722.47;5070668;28;20040;-68
2021/08/25 07:25:30;;;;;;;8.37;3.10;;;;;;;16.40;85.77;101724.97;5070367;28;20047;-68
2021/08/25 07:27:55;;;;;;;6.20;3.40;;;;;;;16.23;85.25;101713.44;5069544;28;20039;-68
2021/08/25 07:30:21;;;;;;;3.97;2.80;;;;;;;16.58;84.93;101707.69;5070362;28;20189;-68
2021/08/25 07:32:46;;;;;;;7.47;3.07;;;;;;;16.47;83.76;101719.69;5069572;28;20040;-68
2021/08/25 07:35:11;;;;;;;5.40;3.60;;;;;;;16.21;85.33;101715.47;5069287;28;20458;-68
2021/08/25 07:37:37;;;;;;;7.57;3.30;;;;;;;16.43;84.76;101705.72;5070053;28;20071;-68
2021/08/25 07:40:05;;;;;;;5.38;2.15;;;;;;;17.23;81.71;101706.34;5069269;28;20029;-69
2021/08/25 07:42:31;;;;;;;5.25;1.70;;;;;;;17.04;79.46;101713.09;5070355;28;20031;-69
2021/08/25 07:44:56;;;;;;;4.20;1.90;;;;;;;16.66;82.26;101708.44;5069749;28;20044;-69
2021/08/25 07:47:21;;;;;;;4.30;1.60;;;;;;;16.67;81.51;101706.63;5069228;28;20079;-69
2021/08/25 07:49:47;;;;;;;3.03;1.27;;;;;;;16.76;80.22;101708.22;5070254;28;20084;-68
2021/08/25 07:52:12;;;;;;;6.23;2.10;;;;;;;16.48;79.84;101693.59;5069527;28;20029;-69
2021/08/25 07:54:38;;;;;;;3.33;1.07;;;;;;;16.29;80.96;101701.09;5070151;28;20089;-69
2021/08/25 07:57:03;;;;;;;2.63;1.17;;;;;;;16.23;80.67;101697.28;5068795;28;20058;-69
2021/08/25 07:59:28;;;;;;;6.43;2.30;;;;;;;16.33;80.03;101701.59;5069121;28;20033;-69
2021/08/25 08:01:54;;;;;;;3.30;0.90;;;;;;;16.26;80.64;101685.28;5068725;28;20040;-69
2021/08/25 08:04:19;;;;;;;1.70;1.00;;;;;;;16.19;79.61;101697.81;5069885;28;20062;-68
2021/08/25 08:06:44;;;;;;;7.20;1.60;;;;;;;16.31;79.86;101699.06;5069537;28;20041;-68
2021/08/25 08:09:10;;;;;;;2.97;0.90;;;;;;;15.92;82.03;101678.41;5070079;28;20123;-68
2021/08/25 08:11:35;;;;;;;4.37;1.20;;;;;;;15.75;81.67;101685.69;5069371;28;20024;-68
2021/08/25 08:14:00;;;;;;;3.90;1.47;;;;;;;15.61;83.35;101681.00;5051962;28;20032;-68
2021/08/25 08:16:26;;;;;;;4.07;1.33;;;;;;;15.66;83.29;101678.63;5069295;28;20048;-68
2021/08/25 08:19:01;;;;;;;2.27;1.37;;;;;;;15.63;83.10;101655.56;5069824;28;20036;-69
2021/08/25 08:21:27;;;;;;;6.50;1.70;;;;;;;15.71;82.19;101661.97;5068517;28;20037;-68
2021/08/25 08:23:52;;;;;;;5.70;1.50;;;;;;;15.88;82.83;101646.63;5069625;28;20683;-68
2021/08/25 08:26:18;;;;;;;3.00;1.67;;;;;;;15.97;82.36;101651.78;5069459;28;20028;-68
2021/08/25 08:28:43;;;;;;;4.30;1.33;;;;;;;16.11;82.69;101655.59;5069162;28;20382;-68
2021/08/25 08:31:10;;;;;;;2.57;1.63;;;;;;;16.09;81.88;101656.78;5069538;28;20042;-68
2021/08/25 08:33:35;;;;;;;5.38;1.60;;;;;;;15.88;81.11;101650.16;5051579;28;20028;-68
2021/08/25 08:36:01;;;;;;;3.38;1.63;;;;;;;16.02;81.07;101652.09;5068204;28;20044;-68
2021/08/25 08:38:26;;;;;;;4.67;1.67;;;;;;;15.90;80.95;101652.66;5069344;28;20040;-68
2021/08/25 08:40:51;;;;;;;6.30;1.43;;;;;;;15.93;80.35;101655.84;5068610;28;20112;-68
2021/08/25 08:43:16;;;;;;;2.30;1.10;;;;;;;16.06;80.11;101646.34;5068944;28;20119;-68
2021/08/25 08:45:44;;;;;;;7.37;1.13;;;;;;;16.32;79.70;101635.22;5068975;28;20040;-69
2021/08/25 08:48:11;;;;;;;5.13;1.45;;;;;;;16.24;78.26;101628.06;5051338;28;20025;-68
2021/08/25 08:50:37;;;;;;;3.97;1.55;;;;;;;16.40;78.60;101622.53;5068224;28;20138;-68
2021/08/25 08:53:05;;;;;;;3.33;1.23;;;;;;;16.48;78.93;101626.19;5067022;28;20454;-71
2021/08/25 08:55:30;;;;;;;3.78;1.13;;;;;;;16.64;79.19;101623.38;5069033;28;20446;-69
2021/08/25 08:57:56;;;;;;;3.80;1.50;;;;;;;16.45;79.38;101601.28;5067796;28;20105;-68
2021/08/25 09:00:21;;;;;;;3.73;1.83;;;;;;;16.42;79.44;101607.03;5068889;28;20097;-68
2021/08/25 09:02:47;;;;;;;8.07;1.73;;;;;;;16.28;80.09;101586.28;5068788;28;20060;-68
2021/08/25 09:05:31;;;;;;;5.67;1.30;;;;;;;16.28;80.77;101594.34;5067556;28;20028;-68
2021/08/25 09:08:05;;;;;;;3.72;1.40;;;;;;;16.54;80.46;101593.16;5068755;28;20075;-68
2021/08/25 09:10:39;;;;;;;3.58;1.55;;;;;;;16.55;80.18;101594.81;5068175;28;20116;-68
2021/08/25 09:13:10;;;;;;;2.78;1.92;;;;;;;16.43;81.07;101587.16;5051078;28;20511;-69
2021/08/25 09:15:39;;;;;;;2.60;1.27;;;;;;;16.55;81.35;101581.31;5067452;28;20039;-68
2021/08/25 09:18:14;;;;;;;4.60;1.10;;;;;;;16.32;82.23;101566.03;5050836;28;20028;-68
2021/08/25 09:20:42;;;;;;;4.07;1.95;;;;;;;16.43;83.65;101572.84;5068536;28;20028;-69
2021/08/25 09:23:15;;;;;;;5.57;1.60;;;;;;;16.42;83.28;101555.00;5066904;28;20041;-69
2021/08/25 09:25:42;;;;;;;1.80;1.20;;;;;;;16.44;82.79;101561.88;5068412;28;20068;-68
2021/08/25 09:28:09;;;;;;;5.07;1.75;;;;;;;15.93;83.69;101544.59;5068570;28;20055;-68
2021/08/25 09:30:53;;;;;;;8.40;1.90;;;;;;;15.98;85.05;101534.94;5068308;28;20050;-69
2021/08/25 09:33:19;;;;;;;4.53;2.03;;;;;;;16.01;85.45;101529.22;5067254;28;20033;-69
2021/08/25 09:35:46;;;;;;;3.47;1.77;;;;;;;16.17;83.73;101513.94;5049680;28;20482;-69
2021/08/25 09:38:19;;;;;;;4.85;1.35;;;;;;;16.39;84.11;101513.09;5067748;28;20041;-68
2021/08/25 09:40:53;;;;;;;2.83;1.42;;;;;;;16.37;84.36;101520.50;5066419;28;20043;-68
2021/08/25 09:43:42;;;;;;;6.25;1.60;;;;;;;16.09;84.88;101511.31;5066623;28;20032;-69
2021/08/25 09:46:13;;;;;;;4.80;1.45;;;;;;;16.16;84.29;101518.50;5065918;28;20052;-69
2021/08/25 09:48:47;;;;;;;4.20;1.30;;;;;;;16.13;85.24;101496.47;5067657;28;20028;-69
2021/08/25 09:51:16;;;;;;;3.45;2.00;;;;;;;16.13;85.61;101499.16;5084137;28;20032;-69
2021/08/25 09:53:43;;;;;;;2.88;1.73;;;;;;;16.19;85.86;101503.81;5090950;28;20046;-69
2021/08/25 09:56:23;;;;;;;1.73;1.33;;;;;;;16.23;85.11;101491.69;5108212;28;20024;-69
2021/08/25 09:58:49;;;;;;;4.03;1.48;;;;;;;16.30;85.92;101500.72;5080617;28;20122;-69
2021/08/25 10:01:17;;;;;;;2.40;1.20;;;;;;;16.26;86.58;101502.09;5087008;28;20170;-68
2021/08/25 10:03:42;;;;;;;3.13;1.52;;;;;;;16.35;86.64;101503.69;5088237;28;20047;-69
2021/08/25 10:06:08;;;;;;;4.87;1.93;;;;;;;16.52;86.42;101496.28;5086738;28;20044;-69
2021/08/25 10:08:34;;;;;;;4.18;1.80;;;;;;;16.35;85.62;101486.69;5108583;28;20043;-69
2021/08/25 10:11:01;;;;;;;2.40;1.40;;;;;;;16.43;86.73;101498.22;5107604;28;20059;-69
2021/08/25 10:13:27;;;;;;;;;;;;;;;16.53;85.60;101491.72;5108618;28;20063;-68
2021/08/25 10:15:52;;;;;;;8.07;1.88;;;;;;;16.11;87.36;101490.41;5107844;28;19934;-68
2021/08/25 10:18:28;;;;;;;6.20;2.43;;;;;;;16.04;88.02;101458.00;5107355;28;20043;-69
2021/08/25 10:20:55;;;;;;;5.65;2.08;;;;;;;16.12;88.78;101460.59;5108390;28;20046;-69
2021/08/25 10:23:59;;;;;;;9.70;2.38;;;;;;;15.95;89.52;101456.38;5105590;28;20036;-68
2021/08/25 10:26:26;;;;;;;4.78;2.10;;;;;;;15.96;90.13;101442.72;5086729;28;20050;-69
2021/08/25 10:29:11;;;;;;;3.10;1.95;;;;;;;16.15;90.28;101438.69;5087940;28;20035;-68
2021/08/25 10:31:48;;;;;;;4.35;1.83;;;;;;;16.08;91.79;101439.59;5087908;28;20633;-69
2021/08/25 10:34:38;;;;;;;9.20;1.95;;;;;;;15.84;93.40;101430.72;5086772;28;20059;-69
2021/08/25 10:37:09;;;;;;;3.53;2.47;;;;;;;15.77;93.15;101422.50;5090072;28;20073;-69
2021/08/25 10:39:36;;;;;;;2.88;1.80;;;;;;;15.77;93.20;101427.06;5091714;28;20067;-69
2021/08/25 10:42:03;;;;;;;5.95;2.08;;;;;;;15.87;92.48;101411.50;5091776;28;20330;-69
2021/08/25 10:44:40;;;;;;;6.68;2.47;;;;;;;15.94;91.83;101425.91;5091190;28;20061;-69
2021/08/25 10:47:11;;;;;;;5.15;2.45;;;;;;;15.98;90.77;101426.41;5090832;28;20043;-69
2021/08/25 10:49:41;;;;;;;3.15;2.08;;;;;;;15.98;91.21;101412.94;5091556;28;20100;-68
2021/08/25 10:52:16;;;;;;;3.58;1.77;;;;;;;15.93;91.56;101413.47;5092981;28;20035;-69
2021/08/25 10:54:49;;;;;;;5.47;2.22;;;;;;;15.90;92.32;101404.94;5111396;28;20039;-69
2021/08/25 10:57:19;;;;;;;5.15;2.10;;;;;;;15.78;94.43;101409.88;5110691;28;20042;-69
2021/08/25 10:59:45;;;;;;;3.03;2.10;;;;;;;15.69;95.46;101392.13;5070012;28;20036;-69
2021/08/25 11:02:11;;;;;;;5.95;1.83;;;;;;;15.49;96.73;101405.22;5070209;28;20028;-69
2021/08/25 11:04:37;;;;;;;3.78;1.60;;;;;;;15.55;98.49;101408.03;5071437;28;20115;-70
2021/08/25 11:07:10;;;;;;;2.25;1.77;;;;;;;15.35;100.00;101399.56;5070803;28;20032;-69
2021/08/25 11:09:43;;;;;;;4.25;1.90;;;;;;;15.61;100.00;101390.31;5069773;28;20466;-70
2021/08/25 11:12:13;;;;;;;4.97;2.65;;;;;;;15.62;100.00;101383.94;5070789;28;20037;-70
2021/08/25 11:14:50;;;;;;;4.65;2.50;;;;;;;15.83;100.00;101373.34;5070435;28;20089;-68
2021/08/25 11:17:26;;;;;;;3.95;2.28;;;;;;;15.93;99.40;101367.69;5069596;28;20051;-69
2021/08/25 11:19:51;;;;;;;8.40;2.65;;;;;;;15.86;99.00;101361.38;5086537;28;20618;-69